createdAt,value
2017-06-12T00:00:55.038Z,53.75
2017-06-12T00:03:21.364Z,54.67
2017-06-12T00:05:47.788Z,54.93
2017-06-12T00:08:14.138Z,54.33
2017-06-12T00:10:40.509Z,54.90
2017-06-12T00:13:06.838Z,53.70
2017-06-12T00:15:33.175Z,53.89
2017-06-12T00:17:59.508Z,56.37
2017-06-12T00:20:25.826Z,54.47
2017-06-12T00:22:52.166Z,55.02
2017-06-12T00:25:18.522Z,55.72
2017-06-12T00:27:44.933Z,55.88
2017-06-12T00:30:11.285Z,54.69
2017-06-12T00:32:37.608Z,55.22
2017-06-12T00:35:03.939Z,54.91
2017-06-12T00:37:30.382Z,54.30
2017-06-12T00:39:56.706Z,54.93
2017-06-12T00:42:23.046Z,55.63
2017-06-12T00:44:49.372Z,55.26
2017-06-12T00:47:15.717Z,55.32
2017-06-12T00:49:42.034Z,55.85
2017-06-12T00:52:08.377Z,53.54
2017-06-12T00:54:34.721Z,53.67
2017-06-12T00:57:01.123Z,53.41
2017-06-12T00:59:27.474Z,52.91
2017-06-12T01:01:53.804Z,52.84
2017-06-12T01:04:20.118Z,52.26
2017-06-12T01:06:46.505Z,52.64
2017-06-12T01:09:12.868Z,53.15
2017-06-12T01:11:39.201Z,53.14
2017-06-12T01:14:05.534Z,52.97
2017-06-12T01:16:31.907Z,53.73
2017-06-12T01:18:58.258Z,53.09
2017-06-12T01:21:24.650Z,52.87
2017-06-12T01:23:50.992Z,52.68
2017-06-12T01:26:17.325Z,52.63
2017-06-12T01:28:43.687Z,52.66
2017-06-12T01:31:10.048Z,52.08
2017-06-12T01:33:36.408Z,51.25
2017-06-12T01:36:02.741Z,50.97
2017-06-12T01:38:29.082Z,49.48
2017-06-12T01:40:55.442Z,50.32
2017-06-12T01:43:21.870Z,49.92
2017-06-12T01:45:48.248Z,49.63
2017-06-12T01:48:14.631Z,48.99
2017-06-12T01:50:40.999Z,48.89
2017-06-12T01:53:07.340Z,49.31
2017-06-12T01:55:33.686Z,47.92
2017-06-12T01:58:00.041Z,46.88
2017-06-12T02:00:26.386Z,46.75
2017-06-12T02:02:52.757Z,46.78
2017-06-12T02:05:19.172Z,44.99
2017-06-12T02:07:45.520Z,46.09
2017-06-12T02:10:11.841Z,45.43
2017-06-12T02:12:38.145Z,44.42
2017-06-12T02:15:04.463Z,44.48
2017-06-12T02:17:30.789Z,45.23
2017-06-12T02:19:57.121Z,43.31
2017-06-12T02:22:23.558Z,43.45
2017-06-12T02:24:49.922Z,43.36
2017-06-12T02:27:16.254Z,44.02
2017-06-12T02:29:42.583Z,43.77
2017-06-12T02:32:08.910Z,43.65
2017-06-12T02:34:35.240Z,44.52
2017-06-12T02:37:01.610Z,44.40
2017-06-12T02:39:27.944Z,44.25
2017-06-12T02:41:54.296Z,44.31
2017-06-12T02:44:20.646Z,43.67
2017-06-12T02:46:46.962Z,45.36
2017-06-12T02:49:13.329Z,44.34
2017-06-12T02:51:39.673Z,44.56
2017-06-12T02:54:06.019Z,45.96
2017-06-12T02:56:32.326Z,45.90
2017-06-12T02:58:58.735Z,45.77
2017-06-12T03:01:25.064Z,45.52
2017-06-12T03:03:51.396Z,45.28
2017-06-12T03:06:17.721Z,46.24
2017-06-12T03:08:44.076Z,47.05
2017-06-12T03:11:10.451Z,46.48
2017-06-12T03:13:36.848Z,47.01
2017-06-12T03:16:03.178Z,45.72
2017-06-12T03:18:29.543Z,46.36
2017-06-12T03:20:55.886Z,46.94
2017-06-12T03:23:22.229Z,46.87
2017-06-12T03:25:48.567Z,47.39
2017-06-12T03:28:14.910Z,47.86
2017-06-12T03:30:41.249Z,47.32
2017-06-12T03:33:07.561Z,47.46
2017-06-12T03:35:34.297Z,46.38
2017-06-12T03:38:00.637Z,47.03
2017-06-12T03:40:26.958Z,47.59
2017-06-12T03:42:53.308Z,48.70
2017-06-12T03:45:19.676Z,49.78
2017-06-12T03:47:46.010Z,48.09
2017-06-12T03:50:12.323Z,49.65
2017-06-12T03:52:38.654Z,50.68
2017-06-12T03:55:05.018Z,48.32
2017-06-12T03:57:31.357Z,50.76
2017-06-12T03:59:57.706Z,50.06
2017-06-12T04:02:24.048Z,49.14
2017-06-12T04:04:50.493Z,49.01
2017-06-12T04:07:16.808Z,49.80
2017-06-12T04:09:43.153Z,49.08
2017-06-12T04:12:09.479Z,50.61
2017-06-12T04:14:35.942Z,50.42
2017-06-12T04:17:02.285Z,51.12
2017-06-12T04:19:28.603Z,51.91
2017-06-12T04:21:54.915Z,52.66
2017-06-12T04:24:21.234Z,54.34
2017-06-12T04:26:47.553Z,53.27
2017-06-12T04:29:13.876Z,54.44
2017-06-12T04:31:40.218Z,53.03
2017-06-12T04:34:06.544Z,53.13
2017-06-12T04:36:32.879Z,52.27
2017-06-12T04:38:59.213Z,54.84
2017-06-12T04:41:25.541Z,55.98
2017-06-12T04:43:51.859Z,53.19
2017-06-12T04:46:18.183Z,54.79
2017-06-12T04:48:44.509Z,54.43
2017-06-12T04:51:10.894Z,55.57
2017-06-12T04:53:37.233Z,56.38
2017-06-12T04:56:03.569Z,53.92
2017-06-12T04:58:29.878Z,54.70
2017-06-12T05:00:56.262Z,53.11
2017-06-12T05:03:22.621Z,55.37
2017-06-12T05:05:48.940Z,55.01
2017-06-12T05:08:15.271Z,56.30
2017-06-12T05:10:41.691Z,54.50
2017-06-12T05:13:08.017Z,56.22
2017-06-12T05:15:34.349Z,55.74
2017-06-12T05:18:00.673Z,53.50
2017-06-12T05:20:27.074Z,55.25
2017-06-12T05:22:53.389Z,56.24
2017-06-12T05:25:19.727Z,54.17
2017-06-12T05:27:46.062Z,57.12
2017-06-12T05:30:12.467Z,54.65
2017-06-12T05:32:38.808Z,55.94
2017-06-12T05:35:05.116Z,55.44
2017-06-12T05:37:31.434Z,56.61
2017-06-12T05:39:57.761Z,57.40
2017-06-12T05:42:24.084Z,57.57
2017-06-12T05:44:50.416Z,56.19
2017-06-12T05:47:16.730Z,55.88
2017-06-12T05:49:43.080Z,57.11
2017-06-12T05:52:09.459Z,55.86
2017-06-12T05:54:35.817Z,55.83
2017-06-12T05:57:02.220Z,56.08
2017-06-12T05:59:28.569Z,59.65
2017-06-12T06:01:54.920Z,57.42
2017-06-12T06:04:21.250Z,55.77
2017-06-12T06:06:47.679Z,59.42
2017-06-12T06:09:13.998Z,56.25
2017-06-12T06:11:40.364Z,56.88
2017-06-12T06:14:06.716Z,59.39
2017-06-12T06:16:33.122Z,57.21
2017-06-12T06:18:59.455Z,60.84
2017-06-12T06:21:25.805Z,59.59
2017-06-12T06:23:52.122Z,59.74
2017-06-12T06:26:18.442Z,58.06
2017-06-12T06:28:44.767Z,58.44
2017-06-12T06:31:11.099Z,59.02
2017-06-12T06:33:37.482Z,57.58
2017-06-12T06:36:03.929Z,57.85
2017-06-12T06:38:30.275Z,57.05
2017-06-12T06:40:56.585Z,57.63
2017-06-12T06:43:22.948Z,57.63
2017-06-12T06:45:49.413Z,59.57
2017-06-12T06:48:15.739Z,58.12
2017-06-12T06:50:42.072Z,60.22
2017-06-12T06:53:08.387Z,57.87
2017-06-12T06:55:34.739Z,61.74
2017-06-12T06:58:01.047Z,57.69
2017-06-12T07:00:27.405Z,59.24
2017-06-12T07:02:53.742Z,60.12
2017-06-12T07:05:20.085Z,60.10
2017-06-12T07:07:46.454Z,58.82
2017-06-12T07:10:12.776Z,56.77
2017-06-12T07:12:39.109Z,59.22
2017-06-12T07:15:05.425Z,58.37
2017-06-12T07:17:31.791Z,57.15
2017-06-12T07:19:58.116Z,56.92
2017-06-12T07:22:24.471Z,59.53
2017-06-12T07:24:50.844Z,58.33
2017-06-12T07:27:17.184Z,56.92
2017-06-12T07:29:43.501Z,55.73
2017-06-12T07:32:09.838Z,58.26
2017-06-12T07:34:36.189Z,56.84
2017-06-12T07:37:02.502Z,56.54
2017-06-12T07:39:28.836Z,55.75
2017-06-12T07:41:55.141Z,55.92
2017-06-12T07:44:21.476Z,55.57
2017-06-12T07:46:47.802Z,55.37
2017-06-12T07:49:14.141Z,55.69
2017-06-12T07:51:40.471Z,57.35
2017-06-12T07:54:06.874Z,55.35
2017-06-12T07:56:33.253Z,56.75
2017-06-12T07:58:59.603Z,55.83
2017-06-12T08:01:25.938Z,54.69
2017-06-12T08:03:52.290Z,55.77
2017-06-12T08:06:18.670Z,55.83
2017-06-12T08:08:45.011Z,53.83
2017-06-12T08:11:11.325Z,54.29
2017-06-12T08:13:37.647Z,53.64
2017-06-12T08:16:04.848Z,53.28
2017-06-12T08:18:31.188Z,53.48
2017-06-12T08:20:57.543Z,54.28
2017-06-12T08:23:23.870Z,52.57
2017-06-12T08:25:50.192Z,54.12
2017-06-12T08:28:16.519Z,52.01
2017-06-12T08:30:42.850Z,55.46
2017-06-12T08:33:09.182Z,53.52
2017-06-12T08:35:35.502Z,52.51
2017-06-12T08:38:01.870Z,53.86
2017-06-12T08:40:28.218Z,52.53
2017-06-12T08:42:54.542Z,53.59
2017-06-12T08:45:20.886Z,51.83
2017-06-12T08:47:47.222Z,52.72
2017-06-12T08:50:13.572Z,51.13
2017-06-12T08:52:39.937Z,51.18
2017-06-12T08:55:06.258Z,49.90
2017-06-12T08:57:32.579Z,49.10
2017-06-12T08:59:58.961Z,49.55
2017-06-12T09:02:25.322Z,49.73
2017-06-12T09:04:51.653Z,50.42
2017-06-12T09:07:18.017Z,47.37
2017-06-12T09:09:44.364Z,47.98
2017-06-12T09:12:10.703Z,47.45
2017-06-12T09:14:37.055Z,46.61
2017-06-12T09:17:03.420Z,47.49
2017-06-12T09:19:29.765Z,46.16
2017-06-12T09:21:56.094Z,47.61
2017-06-12T09:24:22.440Z,47.63
2017-06-12T09:26:48.795Z,47.47
2017-06-12T09:29:15.144Z,48.00
2017-06-12T09:31:41.491Z,46.50
2017-06-12T09:34:07.831Z,48.05
2017-06-12T09:36:34.160Z,47.68
2017-06-12T09:39:00.527Z,45.36
2017-06-12T09:41:26.889Z,45.52
2017-06-12T09:43:53.326Z,48.42
2017-06-12T09:46:19.674Z,46.12
2017-06-12T09:48:46.011Z,46.49
2017-06-12T09:51:12.346Z,45.39
2017-06-12T09:53:38.671Z,46.80
2017-06-12T09:56:04.972Z,49.03
2017-06-12T09:58:31.351Z,46.34
2017-06-12T10:00:57.675Z,47.51
2017-06-12T10:03:24.007Z,47.17
2017-06-12T10:05:50.345Z,47.02
2017-06-12T10:08:16.675Z,45.46
2017-06-12T10:10:42.995Z,46.47
2017-06-12T10:13:09.330Z,44.31
2017-06-12T10:15:35.668Z,44.53
2017-06-12T10:18:02.044Z,44.39
2017-06-12T10:20:28.372Z,42.97
2017-06-12T10:22:54.720Z,43.42
2017-06-12T10:25:21.045Z,43.15
2017-06-12T10:27:47.359Z,42.48
2017-06-12T10:30:13.722Z,42.89
2017-06-12T10:32:40.056Z,41.62
2017-06-12T10:35:06.416Z,41.21
2017-06-12T10:37:32.734Z,40.54
2017-06-12T10:39:59.070Z,40.63
2017-06-12T10:42:25.459Z,42.31
2017-06-12T10:44:51.850Z,42.89
2017-06-12T10:47:18.174Z,40.88
2017-06-12T10:49:44.495Z,42.24
2017-06-12T10:52:10.859Z,40.37
2017-06-12T10:54:37.213Z,38.20
2017-06-12T10:57:03.556Z,38.22
2017-06-12T10:59:29.925Z,39.56
2017-06-12T11:01:56.292Z,39.79
2017-06-12T11:04:22.662Z,38.98
2017-06-12T11:06:49.007Z,39.51
2017-06-12T11:09:15.357Z,39.43
2017-06-12T11:11:41.688Z,38.41
2017-06-12T11:14:08.034Z,41.70
2017-06-12T11:16:34.397Z,40.86
2017-06-12T11:19:00.734Z,42.18
2017-06-12T11:21:27.151Z,42.58
2017-06-12T11:23:53.538Z,41.37
2017-06-12T11:26:19.945Z,42.59
2017-06-12T11:28:46.315Z,41.77
2017-06-12T11:31:12.681Z,41.48
2017-06-12T11:33:39.006Z,41.75
2017-06-12T11:36:05.322Z,41.14
2017-06-12T11:38:31.663Z,41.20
2017-06-12T11:40:57.981Z,43.13
2017-06-12T11:43:24.397Z,42.10
2017-06-12T11:45:50.780Z,40.91
2017-06-12T11:48:17.099Z,40.34
2017-06-12T11:50:43.458Z,39.57
2017-06-12T11:53:11.368Z,41.22
2017-06-12T11:55:37.707Z,41.36
2017-06-12T11:58:04.066Z,41.21
2017-06-12T12:00:30.420Z,43.28
2017-06-12T12:02:56.749Z,40.90
2017-06-12T12:05:23.123Z,42.26
2017-06-12T12:07:49.470Z,41.76
2017-06-12T12:10:15.893Z,41.86
2017-06-12T12:12:42.271Z,41.30
2017-06-12T12:15:08.637Z,41.54
2017-06-12T12:17:34.968Z,41.16
2017-06-12T12:20:01.346Z,41.16
2017-06-12T12:22:27.690Z,42.20
2017-06-12T12:24:54.073Z,42.05
2017-06-12T12:27:20.418Z,41.89
2017-06-12T12:29:46.776Z,41.73
2017-06-12T12:32:13.095Z,43.92
2017-06-12T12:34:39.422Z,42.86
2017-06-12T12:37:05.758Z,43.13
2017-06-12T12:39:32.110Z,43.80
2017-06-12T12:41:58.461Z,44.53
2017-06-12T12:44:24.813Z,42.18
2017-06-12T12:46:51.181Z,44.19
2017-06-12T12:49:17.541Z,42.63
2017-06-12T12:51:43.893Z,42.83
2017-06-12T12:54:10.240Z,41.67
2017-06-12T12:56:36.624Z,42.95
2017-06-12T12:59:02.969Z,44.38
2017-06-12T13:01:29.308Z,43.54
2017-06-12T13:03:55.643Z,44.66
2017-06-12T13:06:21.978Z,44.47
2017-06-12T13:08:48.314Z,43.95
2017-06-12T13:11:14.657Z,43.25
2017-06-12T13:13:40.987Z,45.32
2017-06-12T13:16:07.371Z,46.47
2017-06-12T13:18:33.720Z,44.03
2017-06-12T13:21:00.069Z,44.11
2017-06-12T13:23:26.409Z,43.92
2017-06-12T13:25:52.776Z,42.94
2017-06-12T13:28:19.125Z,41.71
2017-06-12T13:30:45.487Z,44.15
2017-06-12T13:33:11.868Z,43.87
2017-06-12T13:35:38.216Z,43.14
2017-06-12T13:38:04.554Z,41.52
2017-06-12T13:40:30.885Z,42.84
2017-06-12T13:42:57.233Z,42.22
2017-06-12T13:45:23.589Z,41.35
2017-06-12T13:47:49.969Z,42.48
2017-06-12T13:50:16.295Z,41.73
2017-06-12T13:52:42.621Z,41.82
2017-06-12T13:55:08.989Z,42.87
2017-06-12T13:57:35.322Z,40.98
2017-06-12T14:00:01.683Z,40.85
2017-06-12T14:02:28.035Z,39.34
2017-06-12T14:04:54.409Z,41.67
2017-06-12T14:07:20.756Z,41.79
2017-06-12T14:09:47.110Z,39.91
2017-06-12T14:12:13.464Z,42.34
2017-06-12T14:14:39.860Z,42.67
2017-06-12T14:17:06.231Z,42.33
2017-06-12T14:19:32.574Z,41.70
2017-06-12T14:21:58.918Z,40.59
2017-06-12T14:24:25.273Z,40.22
2017-06-12T14:26:51.619Z,42.08
2017-06-12T14:29:17.945Z,43.00
2017-06-12T14:31:44.309Z,43.82
2017-06-12T14:34:10.656Z,42.11
2017-06-12T14:36:37.007Z,43.80
2017-06-12T14:39:03.445Z,43.76
2017-06-12T14:41:29.794Z,45.31
2017-06-12T14:43:56.137Z,43.74
2017-06-12T14:46:22.525Z,43.37
2017-06-12T14:48:48.920Z,42.60
2017-06-12T14:51:15.250Z,45.07
2017-06-12T14:53:41.570Z,43.82
2017-06-12T14:56:07.975Z,44.95
2017-06-12T14:58:34.312Z,44.94
2017-06-12T15:01:00.658Z,45.24
2017-06-12T15:03:27.022Z,43.76
2017-06-12T15:05:53.389Z,43.38
2017-06-12T15:08:19.730Z,44.68
2017-06-12T15:10:46.089Z,45.71
2017-06-12T15:13:12.414Z,45.55
2017-06-12T15:15:38.764Z,45.00
2017-06-12T15:18:05.147Z,45.10
2017-06-12T15:20:31.496Z,46.45
2017-06-12T15:22:57.852Z,46.41
2017-06-12T15:25:24.163Z,46.02
2017-06-12T15:27:50.585Z,44.66
2017-06-12T15:30:16.908Z,46.14
2017-06-12T15:32:43.262Z,45.60
2017-06-12T15:35:09.579Z,46.26
2017-06-12T15:37:35.906Z,45.89
2017-06-12T15:40:02.252Z,45.76
2017-06-12T15:42:28.609Z,46.75
2017-06-12T15:44:54.938Z,46.14
2017-06-12T15:47:21.306Z,46.34
2017-06-12T15:49:47.683Z,45.55
2017-06-12T15:52:13.998Z,47.06
2017-06-12T15:54:40.347Z,46.42
2017-06-12T15:57:06.692Z,46.12
2017-06-12T15:59:35.866Z,47.35
2017-06-12T16:02:04.891Z,48.38
2017-06-12T16:04:31.222Z,47.73
2017-06-12T16:06:57.580Z,46.15
2017-06-12T16:09:23.933Z,47.95
2017-06-12T16:11:50.283Z,48.82
2017-06-12T16:14:16.678Z,49.20
2017-06-12T16:16:43.006Z,48.16
2017-06-12T16:19:09.406Z,46.64
2017-06-12T16:21:35.852Z,47.81
2017-06-12T16:24:03.086Z,46.20
2017-06-12T16:26:29.443Z,46.76
2017-06-12T16:28:55.887Z,47.92
2017-06-12T16:31:22.237Z,48.79
2017-06-12T16:33:48.574Z,47.52
2017-06-12T16:36:14.988Z,49.27
2017-06-12T16:38:41.352Z,48.34
2017-06-12T16:41:07.709Z,47.29
2017-06-12T16:43:34.099Z,48.20
2017-06-12T16:46:00.517Z,50.08
2017-06-12T16:48:26.871Z,46.91
2017-06-12T16:50:53.307Z,47.45
2017-06-12T16:53:19.721Z,47.31
2017-06-12T16:55:46.070Z,46.24
2017-06-12T16:58:13.054Z,46.66
2017-06-12T17:00:40.245Z,48.25
2017-06-12T17:03:07.236Z,48.24
2017-06-12T17:05:33.615Z,47.06
2017-06-12T17:08:00.128Z,47.69
2017-06-12T17:10:26.919Z,46.42
2017-06-12T17:12:53.311Z,47.57
2017-06-12T17:15:19.651Z,47.41
2017-06-12T17:17:46.019Z,47.02
2017-06-12T17:20:12.490Z,49.46
2017-06-12T17:22:39.634Z,48.74
2017-06-12T17:25:08.551Z,48.50
2017-06-12T17:27:35.041Z,47.76
2017-06-12T17:30:03.490Z,48.21
2017-06-12T17:32:30.218Z,48.86
2017-06-12T17:34:57.090Z,47.67
2017-06-12T17:37:23.450Z,48.00
2017-06-12T17:39:49.802Z,48.89
2017-06-12T17:42:16.285Z,48.34
2017-06-12T17:44:42.635Z,48.40
2017-06-12T17:47:08.979Z,49.12
2017-06-12T17:49:35.441Z,48.16
2017-06-12T17:52:01.782Z,48.24
2017-06-12T17:54:28.629Z,49.28
2017-06-12T17:56:55.453Z,50.64
2017-06-12T17:59:21.773Z,50.51
2017-06-12T18:01:48.210Z,48.37
2017-06-12T18:04:14.580Z,49.65
2017-06-12T18:06:41.280Z,49.39
2017-06-12T18:09:07.644Z,49.83
2017-06-12T18:11:34.037Z,51.10
2017-06-12T18:14:00.370Z,50.01
2017-06-12T18:16:26.769Z,50.14
2017-06-12T18:18:53.209Z,50.89
2017-06-12T18:21:20.899Z,48.61
2017-06-12T18:23:47.309Z,50.49
2017-06-12T18:26:13.653Z,50.47
2017-06-12T18:28:40.380Z,51.35
2017-06-12T18:31:07.127Z,48.83
2017-06-12T18:33:33.572Z,50.26
2017-06-12T18:35:59.907Z,51.65
2017-06-12T18:38:26.252Z,49.97
2017-06-12T18:40:52.601Z,50.74
2017-06-12T18:43:18.927Z,51.27
2017-06-12T18:45:45.299Z,51.82
2017-06-12T18:48:11.661Z,52.09
2017-06-12T18:50:37.971Z,51.18
2017-06-12T18:53:04.299Z,50.84
2017-06-12T18:55:30.632Z,52.65
2017-06-12T18:57:56.973Z,52.23
2017-06-12T19:00:23.308Z,51.58
2017-06-12T19:02:49.688Z,52.80
2017-06-12T19:05:16.018Z,52.18
2017-06-12T19:07:42.343Z,51.04
2017-06-12T19:10:08.694Z,52.33
2017-06-12T19:12:35.053Z,50.74
2017-06-12T19:15:01.396Z,52.39
2017-06-12T19:17:27.812Z,51.16
2017-06-12T19:19:54.132Z,51.56
2017-06-12T19:22:20.459Z,50.33
2017-06-12T19:24:46.854Z,52.03
2017-06-12T19:27:13.220Z,51.48
2017-06-12T19:29:39.552Z,50.54
2017-06-12T19:32:05.903Z,51.91
2017-06-12T19:34:32.318Z,51.22
2017-06-12T19:36:58.724Z,52.64
2017-06-12T19:39:25.057Z,52.94
2017-06-12T19:41:51.400Z,51.91
2017-06-12T19:44:17.744Z,52.65
2017-06-12T19:46:44.741Z,51.06
2017-06-12T19:49:11.142Z,51.42
2017-06-12T19:51:37.447Z,52.54
2017-06-12T19:54:03.885Z,53.96
2017-06-12T19:56:30.352Z,53.06
2017-06-12T19:58:56.717Z,53.96
2017-06-12T20:01:23.609Z,51.56
2017-06-12T20:03:49.983Z,51.76
2017-06-12T20:06:16.339Z,54.26
2017-06-12T20:08:42.940Z,52.10
2017-06-12T20:11:09.294Z,52.15
2017-06-12T20:13:35.628Z,52.78
2017-06-12T20:16:01.972Z,54.06
2017-06-12T20:18:28.290Z,53.01
2017-06-12T20:20:54.770Z,53.22
2017-06-12T20:23:21.118Z,52.15
2017-06-12T20:25:47.457Z,55.25
2017-06-12T20:28:13.801Z,53.06
2017-06-12T20:30:40.160Z,53.90
2017-06-12T20:33:06.554Z,53.46
2017-06-12T20:35:32.873Z,54.20
2017-06-12T20:37:59.205Z,56.59
2017-06-12T20:40:25.589Z,56.62
2017-06-12T20:42:51.930Z,53.66
2017-06-12T20:45:18.268Z,55.66
2017-06-12T20:47:44.634Z,54.13
2017-06-12T20:50:10.984Z,57.05
2017-06-12T20:52:37.322Z,55.21
2017-06-12T20:55:03.610Z,55.83
2017-06-12T20:57:29.969Z,56.13
2017-06-12T20:59:56.290Z,53.85
2017-06-12T21:02:22.621Z,52.98
2017-06-12T21:04:48.930Z,54.44
2017-06-12T21:07:15.246Z,56.27
2017-06-12T21:09:41.586Z,55.61
2017-06-12T21:12:07.928Z,53.29
2017-06-12T21:14:34.250Z,53.50
2017-06-12T21:17:00.577Z,52.71
2017-06-12T21:19:26.917Z,53.93
2017-06-12T21:21:53.250Z,53.74
2017-06-12T21:24:19.699Z,55.07
2017-06-12T21:26:46.007Z,54.20
2017-06-12T21:29:12.306Z,54.36
2017-06-12T21:31:38.606Z,56.03
2017-06-12T21:34:04.917Z,54.73
2017-06-12T21:36:31.734Z,55.54
2017-06-12T21:38:58.115Z,55.42
2017-06-12T21:41:24.422Z,53.48
2017-06-12T21:43:50.728Z,54.80
2017-06-12T21:46:17.091Z,55.28
2017-06-12T21:48:43.417Z,53.50
2017-06-12T21:51:09.726Z,53.49
2017-06-12T21:53:36.053Z,55.72
2017-06-12T21:56:02.432Z,53.52
2017-06-12T21:58:28.738Z,57.89
2017-06-12T22:00:55.048Z,58.51
2017-06-12T22:03:21.405Z,58.63
2017-06-12T22:05:48.431Z,57.75
2017-06-12T22:08:14.837Z,59.81
2017-06-12T22:10:41.244Z,56.80
2017-06-12T22:13:07.611Z,57.33
2017-06-12T22:15:33.960Z,56.87
2017-06-12T22:18:00.325Z,55.83
2017-06-12T22:20:26.629Z,54.46
2017-06-12T22:22:52.976Z,55.11
2017-06-12T22:25:19.435Z,55.09
2017-06-12T22:27:45.782Z,57.34
2017-06-12T22:30:12.114Z,57.29
2017-06-12T22:32:38.437Z,57.51
2017-06-12T22:35:04.780Z,56.99
2017-06-12T22:37:31.112Z,56.13
2017-06-12T22:39:57.434Z,57.68
2017-06-12T22:42:23.768Z,58.46
2017-06-12T22:44:50.070Z,56.89
2017-06-12T22:47:16.375Z,55.80
2017-06-12T22:49:42.696Z,59.19
2017-06-12T22:52:09.015Z,58.34
2017-06-12T22:54:35.337Z,59.11
2017-06-12T22:57:01.661Z,58.36
2017-06-12T22:59:27.997Z,59.66
2017-06-12T23:01:54.355Z,62.23
2017-06-12T23:04:20.682Z,59.13
2017-06-12T23:06:47.038Z,60.35
2017-06-12T23:09:13.362Z,59.45
2017-06-12T23:11:39.742Z,56.39
2017-06-12T23:14:06.060Z,56.62
2017-06-12T23:16:32.397Z,57.42
2017-06-12T23:18:59.331Z,57.46
2017-06-12T23:21:26.370Z,60.33
2017-06-12T23:23:59.215Z,57.55
2017-06-12T23:26:25.539Z,59.10
2017-06-12T23:28:52.083Z,57.86
2017-06-12T23:31:18.436Z,56.50
2017-06-12T23:33:44.752Z,56.38
2017-06-12T23:36:11.107Z,56.41
2017-06-12T23:38:37.854Z,57.49
2017-06-12T23:41:04.614Z,56.56
2017-06-12T23:43:30.934Z,58.07
2017-06-12T23:45:57.248Z,56.96
2017-06-12T23:48:23.966Z,57.37
2017-06-12T23:50:50.391Z,61.30
2017-06-12T23:53:17.201Z,59.10
2017-06-12T23:55:43.578Z,57.92
2017-06-12T23:58:09.906Z,59.06
